X  Kiinni Metar Aviation säätiedot     YMML Melbourne International Airport
Lämpötila
14°C Lämpötila
12°C Kastepiste
88% Kosteus



Tuuli
6 MPH
10 KM/T
3 M/S
5 KTS



300°
LPL
Nykyiset olosuhteet

Kirkas Kirkas
Paine 1013.88 (hPa) - 29.94 (inHg)
Näkyvyys 6 (maili) - 9.7 (km)
Lentokenttä
Lentokentän koodi YMML

Sijainti: Melbourne International Airport
Etäisyys: 18 (mi)

Metar:
YMML 291830Z 30005KT CAVOK 14/12 Q1014

Aika: 01-03-2024 05:30 AEDT